createdAt,value
2023-03-26T00:01:15.856Z,5.89
2023-03-26T00:03:47.223Z,5.76
2023-03-26T00:06:25.479Z,5.83
2023-03-26T00:09:01.602Z,5.54
2023-03-26T00:11:29.749Z,5.86
2023-03-26T00:13:57.876Z,5.90
2023-03-26T00:16:27.827Z,5.57
2023-03-26T00:18:54.997Z,5.75
2023-03-26T00:21:28.407Z,5.86
2023-03-26T00:23:58.528Z,5.83
2023-03-26T00:26:27.138Z,5.82
2023-03-26T00:28:54.643Z,5.61
2023-03-26T00:31:21.915Z,5.44
2023-03-26T00:33:55.475Z,5.59
2023-03-26T00:36:25.592Z,5.33
2023-03-26T00:38:54.001Z,5.70
2023-03-26T00:41:24.935Z,5.49
2023-03-26T00:43:57.149Z,5.79
2023-03-26T00:46:25.641Z,5.28
2023-03-26T00:48:52.783Z,5.58
2023-03-26T00:51:21.242Z,5.81
2023-03-26T00:53:49.780Z,5.54
2023-03-26T00:56:17.476Z,5.80
2023-03-26T00:58:44.857Z,5.79
2023-03-26T01:01:18.747Z,5.77
2023-03-26T01:04:00.887Z,5.69
2023-03-26T01:06:36.201Z,5.48
2023-03-26T01:09:18.762Z,5.74
2023-03-26T01:11:47.513Z,5.75
2023-03-26T01:14:23.554Z,5.76
2023-03-26T01:16:55.361Z,5.62
2023-03-26T01:19:38.060Z,5.74
2023-03-26T01:22:11.066Z,5.75
2023-03-26T01:24:39.525Z,5.74
2023-03-26T01:27:21.325Z,5.74
2023-03-26T01:30:01.373Z,5.75
2023-03-26T01:32:44.281Z,5.73
2023-03-26T01:35:30.559Z,5.57
2023-03-26T01:38:10.982Z,5.55
2023-03-26T01:40:49.624Z,5.75
2023-03-26T01:43:21.435Z,5.75
2023-03-26T01:45:50.093Z,5.54
2023-03-26T01:48:17.273Z,5.41
2023-03-26T01:50:44.803Z,5.77
2023-03-26T01:53:13.844Z,5.64
2023-03-26T01:55:49.617Z,5.77
2023-03-26T01:58:35.615Z,5.59
2023-03-26T02:01:19.579Z,5.75
2023-03-26T02:04:06.520Z,5.76
2023-03-26T02:06:38.137Z,5.72
2023-03-26T02:09:09.096Z,5.72
2023-03-26T02:11:38.525Z,5.70
2023-03-26T02:14:07.059Z,5.57
2023-03-26T02:16:34.293Z,5.66
2023-03-26T02:19:01.004Z,5.60
2023-03-26T02:21:28.769Z,5.32
2023-03-26T02:24:03.606Z,5.44
2023-03-26T02:26:37.616Z,5.42
2023-03-26T02:29:12.448Z,5.39
2023-03-26T02:31:41.537Z,5.18
2023-03-26T02:34:08.154Z,5.22
2023-03-26T02:36:37.500Z,5.36
2023-03-26T02:39:05.302Z,5.49
2023-03-26T02:41:35.502Z,5.19
2023-03-26T02:44:06.925Z,5.32
2023-03-26T02:46:54.012Z,5.28
2023-03-26T02:49:41.060Z,5.41
2023-03-26T02:52:07.994Z,5.46
2023-03-26T02:54:36.093Z,5.47
2023-03-26T02:57:08.408Z,5.36
2023-03-26T02:59:54.513Z,5.39
2023-03-26T03:02:52.719Z,5.21
2023-03-26T03:05:20.143Z,5.26
2023-03-26T03:07:58.196Z,5.00
2023-03-26T03:10:28.173Z,5.38
2023-03-26T03:13:08.904Z,5.31
2023-03-26T03:15:36.739Z,5.11
2023-03-26T03:18:03.704Z,5.32
2023-03-26T03:20:35.224Z,5.33
2023-03-26T03:23:02.119Z,5.09
2023-03-26T03:25:30.154Z,5.18
2023-03-26T03:27:57.094Z,5.23
2023-03-26T03:30:24.040Z,5.26
2023-03-26T03:33:13.240Z,5.25
2023-03-26T03:35:41.721Z,5.24
2023-03-26T03:38:08.542Z,5.27
2023-03-26T03:40:44.678Z,5.46
2023-03-26T03:43:11.377Z,5.40
2023-03-26T03:45:47.836Z,5.23
2023-03-26T03:48:38.173Z,5.19
2023-03-26T03:51:06.412Z,5.19
2023-03-26T03:54:03.049Z,5.29
2023-03-26T03:56:52.236Z,5.26
2023-03-26T03:59:38.668Z,5.24
2023-03-26T04:02:14.419Z,5.41
2023-03-26T04:04:50.227Z,5.23
2023-03-26T04:07:20.064Z,5.40
2023-03-26T04:10:05.930Z,5.23
2023-03-26T04:13:07.953Z,5.30
2023-03-26T04:15:57.960Z,5.18
2023-03-26T04:18:26.319Z,4.85
2023-03-26T04:20:55.622Z,5.21
2023-03-26T04:23:26.668Z,5.03
2023-03-26T04:26:04.277Z,5.25
2023-03-26T04:29:00.028Z,5.04
2023-03-26T04:31:30.545Z,5.14
2023-03-26T04:34:15.370Z,5.13
2023-03-26T04:36:54.503Z,5.13
2023-03-26T04:39:29.277Z,5.07
2023-03-26T04:42:15.376Z,4.88
2023-03-26T04:44:56.280Z,4.92
2023-03-26T04:47:23.543Z,4.84
2023-03-26T04:49:50.685Z,4.68
2023-03-26T04:52:18.183Z,4.66
2023-03-26T04:54:57.406Z,4.74
2023-03-26T04:57:33.906Z,5.06
2023-03-26T05:00:16.661Z,4.84
2023-03-26T05:02:50.445Z,4.66
2023-03-26T05:05:18.315Z,4.92
2023-03-26T05:07:45.223Z,5.02
2023-03-26T05:10:16.536Z,5.09
2023-03-26T05:12:49.392Z,5.07
2023-03-26T05:15:25.410Z,4.83
2023-03-26T05:18:32.283Z,4.82
2023-03-26T05:21:00.235Z,5.00
2023-03-26T05:23:28.098Z,4.65
2023-03-26T05:26:10.160Z,5.07
2023-03-26T05:28:37.078Z,4.87
2023-03-26T05:31:17.991Z,4.71
2023-03-26T05:33:48.614Z,4.59
2023-03-26T05:36:17.278Z,4.73
2023-03-26T05:38:49.557Z,4.52
2023-03-26T05:41:36.477Z,4.62
2023-03-26T05:44:03.208Z,4.35
2023-03-26T05:46:31.089Z,4.63
2023-03-26T05:48:58.184Z,4.47
2023-03-26T05:51:25.341Z,4.52
2023-03-26T05:54:01.690Z,4.35
2023-03-26T05:57:03.704Z,4.27
2023-03-26T05:59:50.554Z,4.47
2023-03-26T06:02:36.110Z,4.68
2023-03-26T06:05:20.741Z,4.56
2023-03-26T06:08:07.800Z,4.52
2023-03-26T06:10:39.363Z,4.84
2023-03-26T06:13:06.344Z,4.96
2023-03-26T06:15:35.885Z,4.58
2023-03-26T06:18:14.669Z,5.18
2023-03-26T06:21:08.061Z,5.34
2023-03-26T06:23:44.162Z,5.00
2023-03-26T06:26:26.985Z,5.04
2023-03-26T06:29:20.160Z,5.26
2023-03-26T06:32:18.514Z,5.00
2023-03-26T06:34:51.561Z,5.02
2023-03-26T06:37:20.934Z,5.05
2023-03-26T06:39:56.882Z,5.13
2023-03-26T06:43:08.737Z,5.23
2023-03-26T06:45:53.611Z,5.22
2023-03-26T06:48:29.323Z,5.46
2023-03-26T06:51:13.517Z,5.47
2023-03-26T06:53:58.767Z,5.58
2023-03-26T06:56:43.336Z,5.60
2023-03-26T06:59:28.316Z,5.28
2023-03-26T07:02:13.588Z,5.60
2023-03-26T07:04:59.153Z,5.91
2023-03-26T07:07:46.872Z,5.97
2023-03-26T07:10:32.947Z,5.97
2023-03-26T07:13:18.374Z,5.98
2023-03-26T07:16:23.700Z,5.99
2023-03-26T07:19:13.356Z,6.19
2023-03-26T07:21:41.810Z,6.21
2023-03-26T07:24:44.397Z,6.04
2023-03-26T07:27:36.978Z,6.22
2023-03-26T07:30:54.901Z,6.35
2023-03-26T07:33:56.900Z,6.33
2023-03-26T07:36:53.898Z,6.56
2023-03-26T07:40:08.133Z,6.51
2023-03-26T07:43:20.098Z,6.66
2023-03-26T07:46:14.226Z,6.78
2023-03-26T07:49:07.592Z,6.68
2023-03-26T07:51:57.600Z,6.68
2023-03-26T07:54:44.526Z,6.62
2023-03-26T07:57:45.493Z,6.86
2023-03-26T08:00:30.016Z,6.53
2023-03-26T08:03:09.913Z,6.94
2023-03-26T08:06:24.151Z,6.82
2023-03-26T08:09:28.339Z,6.68
2023-03-26T08:12:57.993Z,6.95
2023-03-26T08:15:41.644Z,6.86
2023-03-26T08:18:27.503Z,7.19
2023-03-26T08:21:00.858Z,7.07
2023-03-26T08:24:11.033Z,7.27
2023-03-26T08:26:57.385Z,7.34
2023-03-26T08:29:36.367Z,7.42
2023-03-26T08:32:05.996Z,7.52
2023-03-26T08:34:32.699Z,7.44
2023-03-26T08:36:59.374Z,7.30
2023-03-26T08:39:26.017Z,7.33
2023-03-26T08:42:11.536Z,7.45
2023-03-26T08:44:47.719Z,7.45
2023-03-26T08:47:27.469Z,7.31
2023-03-26T08:50:10.567Z,7.30
2023-03-26T08:53:06.115Z,7.21
2023-03-26T08:55:58.128Z,7.30
2023-03-26T08:58:58.934Z,7.34
2023-03-26T09:01:50.100Z,7.22
2023-03-26T09:04:47.882Z,7.21
2023-03-26T09:07:29.841Z,7.21
2023-03-26T09:09:56.483Z,7.30
2023-03-26T09:12:44.649Z,7.28
2023-03-26T09:15:47.034Z,7.28
2023-03-26T09:18:22.679Z,7.30
2023-03-26T09:21:34.424Z,7.38
2023-03-26T09:24:10.894Z,7.45
2023-03-26T09:26:46.396Z,7.58
2023-03-26T09:29:32.912Z,7.56
2023-03-26T09:32:29.211Z,7.59
2023-03-26T09:35:13.117Z,7.64
2023-03-26T09:38:11.764Z,7.63
2023-03-26T09:41:18.422Z,7.48
2023-03-26T09:44:14.637Z,7.19
2023-03-26T09:47:20.105Z,7.27
2023-03-26T09:50:01.830Z,7.28
2023-03-26T09:52:50.412Z,7.05
2023-03-26T09:55:32.437Z,6.99
2023-03-26T09:58:04.948Z,6.78
2023-03-26T10:00:46.261Z,6.59
2023-03-26T10:03:43.841Z,6.44
2023-03-26T10:06:14.253Z,6.53
2023-03-26T10:09:09.672Z,6.49
2023-03-26T10:12:24.608Z,6.45
2023-03-26T10:15:09.874Z,6.43
2023-03-26T10:17:49.020Z,6.31
2023-03-26T10:20:46.287Z,6.11
2023-03-26T10:23:34.106Z,6.26
2023-03-26T10:26:29.160Z,6.19
2023-03-26T10:29:17.825Z,6.10
2023-03-26T10:32:12.468Z,6.07
2023-03-26T10:34:48.230Z,6.01
2023-03-26T10:37:45.870Z,5.95
2023-03-26T10:40:55.148Z,5.69
2023-03-26T10:43:33.706Z,5.78
2023-03-26T10:46:13.827Z,5.74
2023-03-26T10:49:01.076Z,5.78
2023-03-26T10:51:51.400Z,5.82
2023-03-26T10:54:57.069Z,5.88
2023-03-26T10:57:37.060Z,5.93
2023-03-26T11:00:16.783Z,6.05
2023-03-26T11:03:22.597Z,5.88
2023-03-26T11:05:54.120Z,5.95
2023-03-26T11:08:31.902Z,5.91
2023-03-26T11:11:16.984Z,5.91
2023-03-26T11:13:48.301Z,5.62
2023-03-26T11:16:39.366Z,5.83
2023-03-26T11:19:16.764Z,5.58
2023-03-26T11:21:52.802Z,5.73
2023-03-26T11:24:37.501Z,5.52
2023-03-26T11:27:15.344Z,5.71
2023-03-26T11:30:02.024Z,5.68
2023-03-26T11:32:42.188Z,5.42
2023-03-26T11:35:41.042Z,5.59
2023-03-26T11:38:15.859Z,5.46
2023-03-26T11:40:48.958Z,5.39
2023-03-26T11:43:30.051Z,5.35
2023-03-26T11:45:56.922Z,5.71
2023-03-26T11:48:30.571Z,5.72
2023-03-26T11:51:18.504Z,5.84
2023-03-26T11:53:48.788Z,5.82
2023-03-26T11:56:31.068Z,5.98
2023-03-26T11:59:05.809Z,6.03
2023-03-26T12:01:50.417Z,6.12
2023-03-26T12:04:29.407Z,5.76
2023-03-26T12:07:07.708Z,6.07
2023-03-26T12:09:34.568Z,5.76
2023-03-26T12:12:04.286Z,5.77
2023-03-26T12:14:34.727Z,5.88
2023-03-26T12:17:01.660Z,5.91
2023-03-26T12:19:36.216Z,5.98
2023-03-26T12:22:02.978Z,5.75
2023-03-26T12:24:32.945Z,5.96
2023-03-26T12:27:02.421Z,5.86
2023-03-26T12:29:34.663Z,5.86
2023-03-26T12:32:14.224Z,5.87
2023-03-26T12:34:41.605Z,5.87
2023-03-26T12:37:38.714Z,6.00
2023-03-26T12:40:30.664Z,6.00
2023-03-26T12:44:46.166Z,5.98
2023-03-26T12:47:54.025Z,5.76
2023-03-26T12:48:38.218Z,5.69
2023-03-26T12:51:11.124Z,5.66
2023-03-26T12:53:56.429Z,5.71
2023-03-26T12:56:36.993Z,5.49
2023-03-26T12:59:34.362Z,5.47
2023-03-26T13:02:21.724Z,5.38
2023-03-26T13:05:06.124Z,5.70
2023-03-26T13:08:01.460Z,5.75
2023-03-26T13:10:41.172Z,5.63
2023-03-26T13:13:38.351Z,5.68
2023-03-26T13:16:52.056Z,5.73
2023-03-26T13:19:40.916Z,5.89
2023-03-26T13:22:31.068Z,5.99
2023-03-26T13:25:23.033Z,5.84
2023-03-26T13:28:04.690Z,6.05
2023-03-26T13:30:39.722Z,5.95
2023-03-26T13:33:31.776Z,6.08
2023-03-26T13:36:29.921Z,6.07
2023-03-26T13:39:10.801Z,6.72
2023-03-26T13:41:50.027Z,7.26
2023-03-26T13:44:19.650Z,7.35
2023-03-26T13:46:51.970Z,7.20
2023-03-26T13:49:37.230Z,7.27
2023-03-26T13:52:37.813Z,7.12
2023-03-26T13:55:23.319Z,7.01
2023-03-26T13:58:24.132Z,6.90
2023-03-26T14:01:21.786Z,6.82
2023-03-26T14:04:10.542Z,6.85
2023-03-26T14:06:57.484Z,6.90
2023-03-26T14:09:54.743Z,6.95
2023-03-26T14:12:22.065Z,7.93
2023-03-26T14:15:09.170Z,8.68
2023-03-26T14:17:41.596Z,10.22
2023-03-26T14:20:17.575Z,10.38
2023-03-26T14:23:15.300Z,9.22
2023-03-26T14:26:01.174Z,8.28
2023-03-26T14:29:06.156Z,8.28
2023-03-26T14:31:43.152Z,8.78
2023-03-26T14:34:16.104Z,8.70
2023-03-26T14:37:27.763Z,8.43
2023-03-26T14:40:21.413Z,8.15
2023-03-26T14:43:24.850Z,7.97
2023-03-26T14:46:26.675Z,8.73
2023-03-26T14:49:11.744Z,8.43
2023-03-26T14:52:20.701Z,8.22
2023-03-26T14:54:53.139Z,7.98
2023-03-26T14:57:22.788Z,8.06
2023-03-26T15:00:27.089Z,7.97
2023-03-26T15:03:12.624Z,7.90
2023-03-26T15:05:42.479Z,7.82
2023-03-26T15:08:33.614Z,7.99
2023-03-26T15:11:20.995Z,8.09
2023-03-26T15:13:53.447Z,7.97
2023-03-26T15:16:40.052Z,7.98
2023-03-26T15:19:34.226Z,8.06
2023-03-26T15:22:12.688Z,8.65
2023-03-26T15:24:48.525Z,8.70
2023-03-26T15:27:50.562Z,8.85
2023-03-26T15:30:51.253Z,8.70
2023-03-26T15:33:49.648Z,9.34
2023-03-26T15:36:38.250Z,10.22
2023-03-26T15:39:26.194Z,10.41
2023-03-26T15:42:08.094Z,11.03
2023-03-26T15:44:57.611Z,11.46
2023-03-26T15:47:48.821Z,10.43
2023-03-26T15:50:22.514Z,9.50
2023-03-26T15:53:18.578Z,8.96
2023-03-26T15:56:16.041Z,8.67
2023-03-26T15:58:44.146Z,8.48
2023-03-26T16:01:45.051Z,8.34
2023-03-26T16:04:29.654Z,8.16
2023-03-26T16:07:03.511Z,8.15
2023-03-26T16:09:56.109Z,8.10
2023-03-26T16:12:32.715Z,8.10
2023-03-26T16:15:05.966Z,8.11
2023-03-26T16:18:16.916Z,8.11
2023-03-26T16:21:05.081Z,7.98
2023-03-26T16:23:47.925Z,8.05
2023-03-26T16:26:37.417Z,8.09
2023-03-26T16:29:25.767Z,8.17
2023-03-26T16:32:12.602Z,8.36
2023-03-26T16:34:45.691Z,8.39
2023-03-26T16:37:52.161Z,8.28
2023-03-26T16:40:22.646Z,8.19
2023-03-26T16:43:17.409Z,8.04
2023-03-26T16:46:08.371Z,8.11
2023-03-26T16:49:00.228Z,8.15
2023-03-26T16:51:53.652Z,7.86
2023-03-26T16:54:24.596Z,7.81
2023-03-26T16:57:22.678Z,7.68
2023-03-26T17:00:08.653Z,7.59
2023-03-26T17:02:48.011Z,7.65
2023-03-26T17:05:34.233Z,7.44
2023-03-26T17:08:36.908Z,7.37
2023-03-26T17:11:22.196Z,7.40
2023-03-26T17:14:11.045Z,7.19
2023-03-26T17:16:49.250Z,6.92
2023-03-26T17:19:34.207Z,6.99
2023-03-26T17:29:54.513Z,6.91
2023-03-26T17:32:56.167Z,6.56
2023-03-26T17:35:44.414Z,6.35
2023-03-26T17:38:17.785Z,6.22
2023-03-26T17:40:48.666Z,6.23
2023-03-26T17:43:47.816Z,6.23
2023-03-26T17:46:22.832Z,6.25
2023-03-26T17:48:59.607Z,6.26
2023-03-26T17:51:39.162Z,6.25
2023-03-26T17:54:46.255Z,5.96
2023-03-26T17:57:30.688Z,5.65
2023-03-26T17:59:59.762Z,5.21
2023-03-26T18:02:43.367Z,5.36
2023-03-26T18:05:13.156Z,5.43
2023-03-26T18:08:13.003Z,5.51
2023-03-26T18:11:06.033Z,5.60
2023-03-26T18:14:00.037Z,5.54
2023-03-26T18:16:36.141Z,5.74
2023-03-26T18:19:17.635Z,5.68
2023-03-26T18:21:50.211Z,5.58
2023-03-26T18:24:32.328Z,5.58
2023-03-26T18:27:06.990Z,5.36
2023-03-26T18:29:35.513Z,5.33
2023-03-26T18:32:14.125Z,5.23
2023-03-26T18:34:52.562Z,5.20
2023-03-26T18:37:23.550Z,5.28
2023-03-26T18:40:02.189Z,5.13
2023-03-26T18:42:31.607Z,5.04
2023-03-26T18:45:34.224Z,4.88
2023-03-26T18:48:04.867Z,4.87
2023-03-26T18:50:38.823Z,4.56
2023-03-26T18:53:07.336Z,4.72
2023-03-26T18:55:41.724Z,4.82
2023-03-26T18:58:21.735Z,4.84
2023-03-26T19:00:49.976Z,4.65
2023-03-26T19:03:22.263Z,4.81
2023-03-26T19:05:51.516Z,4.22
2023-03-26T19:08:20.083Z,4.90
2023-03-26T19:10:51.806Z,4.67
2023-03-26T19:13:21.604Z,4.53
2023-03-26T19:15:59.126Z,5.00
2023-03-26T19:18:36.317Z,4.41
2023-03-26T19:21:07.520Z,3.96
2023-03-26T19:23:41.215Z,4.53
2023-03-26T19:26:11.278Z,4.60
2023-03-26T19:28:49.081Z,4.57
2023-03-26T19:31:16.028Z,4.71
2023-03-26T19:33:44.132Z,4.61
2023-03-26T19:36:14.326Z,4.87
2023-03-26T19:38:52.687Z,4.59
2023-03-26T19:41:36.908Z,4.63
2023-03-26T19:44:16.310Z,4.37
2023-03-26T19:46:52.855Z,4.49
2023-03-26T19:49:47.741Z,4.50
2023-03-26T19:52:20.038Z,4.08
2023-03-26T19:54:59.408Z,4.49
2023-03-26T19:57:32.155Z,4.38
2023-03-26T19:59:59.841Z,3.68
2023-03-26T20:02:27.699Z,3.67
2023-03-26T20:04:54.483Z,3.84
2023-03-26T20:07:35.620Z,3.70
2023-03-26T20:10:05.537Z,3.87
2023-03-26T20:12:32.888Z,3.67
2023-03-26T20:15:00.790Z,3.87
2023-03-26T20:17:30.874Z,4.19
2023-03-26T20:19:57.731Z,4.20
2023-03-26T20:22:24.548Z,4.31
2023-03-26T20:24:51.644Z,4.25
2023-03-26T20:27:19.233Z,3.68
2023-03-26T20:29:46.574Z,4.60
2023-03-26T20:32:23.678Z,4.93
2023-03-26T20:34:51.744Z,4.46
2023-03-26T20:37:18.503Z,4.48
2023-03-26T20:39:45.773Z,4.37
2023-03-26T20:42:15.430Z,4.37
2023-03-26T20:44:42.831Z,4.55
2023-03-26T20:47:12.759Z,4.48
2023-03-26T20:49:40.199Z,4.63
2023-03-26T20:52:06.945Z,4.34
2023-03-26T20:54:33.690Z,4.63
2023-03-26T20:57:00.484Z,4.35
2023-03-26T20:59:27.958Z,4.87
2023-03-26T21:01:56.721Z,5.27
2023-03-26T21:04:24.723Z,4.72
2023-03-26T21:06:53.365Z,5.34
2023-03-26T21:09:24.100Z,5.13
2023-03-26T21:11:54.794Z,5.20
2023-03-26T21:14:46.389Z,5.38
2023-03-26T21:17:16.286Z,5.04
2023-03-26T21:19:44.114Z,5.10
2023-03-26T21:22:38.973Z,4.85
2023-03-26T21:25:18.596Z,5.09
2023-03-26T21:27:57.472Z,5.26
2023-03-26T21:30:24.497Z,5.00
2023-03-26T21:32:52.012Z,5.19
2023-03-26T21:35:19.293Z,4.97
2023-03-26T21:37:48.732Z,5.19
2023-03-26T21:40:18.293Z,5.17
2023-03-26T21:42:54.839Z,5.03
2023-03-26T21:45:22.229Z,5.05
2023-03-26T21:47:49.530Z,4.88
2023-03-26T21:50:38.539Z,4.89
2023-03-26T21:53:05.599Z,5.19
2023-03-26T21:55:43.373Z,4.80
2023-03-26T21:58:36.070Z,5.14
2023-03-26T22:01:08.969Z,5.10
2023-03-26T22:04:02.137Z,4.98
2023-03-26T22:06:47.305Z,5.00
2023-03-26T22:09:16.664Z,5.00
2023-03-26T22:11:45.605Z,5.03
2023-03-26T22:14:13.364Z,4.93
2023-03-26T22:16:41.594Z,4.86
2023-03-26T22:19:08.847Z,4.91
2023-03-26T22:21:35.946Z,4.86
2023-03-26T22:24:04.192Z,4.26
2023-03-26T22:26:31.440Z,4.99
2023-03-26T22:28:58.572Z,4.97
2023-03-26T22:31:26.498Z,4.65
2023-03-26T22:33:54.756Z,4.84
2023-03-26T22:36:41.773Z,4.69
2023-03-26T22:39:08.425Z,4.78
2023-03-26T22:41:35.061Z,4.87
2023-03-26T22:44:16.756Z,4.73
2023-03-26T22:46:49.092Z,4.62
2023-03-26T22:49:16.539Z,4.78
2023-03-26T22:51:43.739Z,4.64
2023-03-26T22:54:10.534Z,4.67
2023-03-26T22:56:37.739Z,4.73
2023-03-26T22:59:04.617Z,4.72
2023-03-26T23:01:31.365Z,4.62
2023-03-26T23:03:58.359Z,4.62
2023-03-26T23:06:25.235Z,4.68
2023-03-26T23:08:52.015Z,4.49
2023-03-26T23:11:20.532Z,4.59
2023-03-26T23:13:48.024Z,4.79
2023-03-26T23:16:16.272Z,4.70
2023-03-26T23:18:44.086Z,4.76
2023-03-26T23:21:21.569Z,4.64
2023-03-26T23:23:50.441Z,4.73
2023-03-26T23:26:17.138Z,4.51
2023-03-26T23:28:44.107Z,4.47
2023-03-26T23:31:14.547Z,4.78
2023-03-26T23:33:46.184Z,4.77
2023-03-26T23:36:17.689Z,4.55
2023-03-26T23:38:48.991Z,4.58
2023-03-26T23:41:21.707Z,4.56
2023-03-26T23:43:53.629Z,4.73
2023-03-26T23:46:30.955Z,4.65
2023-03-26T23:49:03.414Z,4.04
2023-03-26T23:51:31.318Z,4.68
2023-03-26T23:53:58.471Z,4.56
2023-03-26T23:56:27.667Z,4.68
2023-03-26T23:58:55.261Z,4.38
